sensor_id;sensor_type;location;lat;lon;timestamp;temperature;humidity
3017;DHT22;1518;52.408;13.060;2023-04-06T00:00:45;24.30;45.80
3017;DHT22;1518;52.408;13.060;2023-04-06T00:03:33;24.30;45.70
3017;DHT22;1518;52.408;13.060;2023-04-06T00:06:23;24.40;45.20
3017;DHT22;1518;52.408;13.060;2023-04-06T00:09:11;24.40;45.60
3017;DHT22;1518;52.408;13.060;2023-04-06T00:11:59;24.50;45.50
3017;DHT22;1518;52.408;13.060;2023-04-06T00:14:47;24.20;48.90
3017;DHT22;1518;52.408;13.060;2023-04-06T00:17:35;24.40;45.40
3017;DHT22;1518;52.408;13.060;2023-04-06T00:20:23;24.30;45.30
3017;DHT22;1518;52.408;13.060;2023-04-06T00:23:13;24.30;45.40
3017;DHT22;1518;52.408;13.060;2023-04-06T00:26:01;24.20;45.00
3017;DHT22;1518;52.408;13.060;2023-04-06T00:28:49;24.20;45.60
3017;DHT22;1518;52.408;13.060;2023-04-06T00:31:39;24.10;45.60
3017;DHT22;1518;52.408;13.060;2023-04-06T00:34:27;24.10;45.70
3017;DHT22;1518;52.408;13.060;2023-04-06T00:37:15;24.00;45.10
3017;DHT22;1518;52.408;13.060;2023-04-06T00:40:05;23.90;45.70
3017;DHT22;1518;52.408;13.060;2023-04-06T00:42:54;23.80;46.50
3017;DHT22;1518;52.408;13.060;2023-04-06T00:45:42;23.90;45.30
3017;DHT22;1518;52.408;13.060;2023-04-06T00:48:31;24.00;45.80
3017;DHT22;1518;52.408;13.060;2023-04-06T00:51:19;24.00;45.70
3017;DHT22;1518;52.408;13.060;2023-04-06T00:54:07;24.10;45.40
3017;DHT22;1518;52.408;13.060;2023-04-06T00:56:57;24.20;45.00
3017;DHT22;1518;52.408;13.060;2023-04-06T00:59:45;24.20;45.50
3017;DHT22;1518;52.408;13.060;2023-04-06T01:02:33;24.20;45.50
3017;DHT22;1518;52.408;13.060;2023-04-06T01:05:21;24.10;45.00
3017;DHT22;1518;52.408;13.060;2023-04-06T01:08:10;24.00;45.60
3017;DHT22;1518;52.408;13.060;2023-04-06T01:10:59;24.00;45.60
3017;DHT22;1518;52.408;13.060;2023-04-06T01:13:49;24.00;45.60
3017;DHT22;1518;52.408;13.060;2023-04-06T01:16:37;24.10;45.00
3017;DHT22;1518;52.408;13.060;2023-04-06T01:19:25;24.10;45.50
3017;DHT22;1518;52.408;13.060;2023-04-06T01:22:15;24.20;45.50
3017;DHT22;1518;52.408;13.060;2023-04-06T01:25:04;24.40;44.80
3017;DHT22;1518;52.408;13.060;2023-04-06T01:27:52;24.40;45.40
3017;DHT22;1518;52.408;13.060;2023-04-06T01:30:40;24.40;45.30
3017;DHT22;1518;52.408;13.060;2023-04-06T01:33:29;24.40;45.20
3017;DHT22;1518;52.408;13.060;2023-04-06T01:36:17;24.50;44.70
3017;DHT22;1518;52.408;13.060;2023-04-06T01:39:06;24.40;45.20
3017;DHT22;1518;52.408;13.060;2023-04-06T01:41:55;24.40;45.20
3017;DHT22;1518;52.408;13.060;2023-04-06T01:44:43;24.30;48.80
3017;DHT22;1518;52.408;13.060;2023-04-06T01:47:31;24.20;45.30
3017;DHT22;1518;52.408;13.060;2023-04-06T01:50:19;24.10;45.30
3017;DHT22;1518;52.408;13.060;2023-04-06T01:53:07;24.20;45.50
3017;DHT22;1518;52.408;13.060;2023-04-06T01:55:56;24.20;45.00
3017;DHT22;1518;52.408;13.060;2023-04-06T01:58:44;24.10;45.40
3017;DHT22;1518;52.408;13.060;2023-04-06T02:01:32;24.10;45.50
3017;DHT22;1518;52.408;13.060;2023-04-06T02:04:20;24.00;45.40
3017;DHT22;1518;52.408;13.060;2023-04-06T02:07:08;24.00;45.00
3017;DHT22;1518;52.408;13.060;2023-04-06T02:09:56;24.00;45.50
3017;DHT22;1518;52.408;13.060;2023-04-06T02:12:46;24.00;45.40
3017;DHT22;1518;52.408;13.060;2023-04-06T02:15:34;24.10;45.00
3017;DHT22;1518;52.408;13.060;2023-04-06T02:18:22;24.20;45.60
3017;DHT22;1518;52.408;13.060;2023-04-06T02:21:10;24.10;45.40
3017;DHT22;1518;52.408;13.060;2023-04-06T02:23:58;24.10;45.40
3017;DHT22;1518;52.408;13.060;2023-04-06T02:26:46;24.10;44.90
3017;DHT22;1518;52.408;13.060;2023-04-06T02:29:35;24.20;45.50
3017;DHT22;1518;52.408;13.060;2023-04-06T02:32:23;24.10;45.30
3017;DHT22;1518;52.408;13.060;2023-04-06T02:35:12;24.20;44.80
3017;DHT22;1518;52.408;13.060;2023-04-06T02:38:00;24.20;45.20
3017;DHT22;1518;52.408;13.060;2023-04-06T02:40:48;24.30;45.20
3017;DHT22;1518;52.408;13.060;2023-04-06T02:43:36;24.30;45.20
3017;DHT22;1518;52.408;13.060;2023-04-06T02:46:25;24.30;44.70
3017;DHT22;1518;52.408;13.060;2023-04-06T02:49:13;24.20;45.20
3017;DHT22;1518;52.408;13.060;2023-04-06T02:52:01;24.10;45.20
3017;DHT22;1518;52.408;13.060;2023-04-06T02:54:49;23.80;50.40
3017;DHT22;1518;52.408;13.060;2023-04-06T02:57:38;23.80;45.40
3017;DHT22;1518;52.408;13.060;2023-04-06T03:00:26;23.70;45.50
3017;DHT22;1518;52.408;13.060;2023-04-06T03:03:15;23.70;45.70
3017;DHT22;1518;52.408;13.060;2023-04-06T03:06:04;23.60;45.20
3017;DHT22;1518;52.408;13.060;2023-04-06T03:08:52;23.70;45.80
3017;DHT22;1518;52.408;13.060;2023-04-06T03:11:40;23.90;45.70
3017;DHT22;1518;52.408;13.060;2023-04-06T03:14:28;23.90;45.70
3017;DHT22;1518;52.408;13.060;2023-04-06T03:17:16;24.00;44.90
3017;DHT22;1518;52.408;13.060;2023-04-06T03:20:06;24.00;45.20
3017;DHT22;1518;52.408;13.060;2023-04-06T03:22:54;24.00;45.30
3017;DHT22;1518;52.408;13.060;2023-04-06T03:25:42;24.10;44.70
3017;DHT22;1518;52.408;13.060;2023-04-06T03:28:30;24.10;45.20
3017;DHT22;1518;52.408;13.060;2023-04-06T03:31:18;24.10;45.20
3017;DHT22;1518;52.408;13.060;2023-04-06T03:34:06;24.10;45.20
3017;DHT22;1518;52.408;13.060;2023-04-06T03:36:56;24.10;44.80
3017;DHT22;1518;52.408;13.060;2023-04-06T03:39:56;24.20;45.30
3017;DHT22;1518;52.408;13.060;2023-04-06T03:42:44;24.10;45.20
3017;DHT22;1518;52.408;13.060;2023-04-06T03:45:32;24.10;44.70
3017;DHT22;1518;52.408;13.060;2023-04-06T03:48:20;24.10;45.20
3017;DHT22;1518;52.408;13.060;2023-04-06T03:51:08;24.20;45.20
3017;DHT22;1518;52.408;13.060;2023-04-06T03:53:57;24.20;45.20
3017;DHT22;1518;52.408;13.060;2023-04-06T03:56:45;24.20;44.70
3017;DHT22;1518;52.408;13.060;2023-04-06T03:59:33;24.30;45.10
3017;DHT22;1518;52.408;13.060;2023-04-06T04:02:22;24.30;45.10
3017;DHT22;1518;52.408;13.060;2023-04-06T04:05:10;24.20;44.50
3017;DHT22;1518;52.408;13.060;2023-04-06T04:07:58;24.20;45.00
3017;DHT22;1518;52.408;13.060;2023-04-06T04:10:47;24.10;45.10
3017;DHT22;1518;52.408;13.060;2023-04-06T04:13:35;24.00;45.10
3017;DHT22;1518;52.408;13.060;2023-04-06T04:16:23;24.00;44.70
3017;DHT22;1518;52.408;13.060;2023-04-06T04:19:12;24.00;45.30
3017;DHT22;1518;52.408;13.060;2023-04-06T04:22:00;23.80;45.30
3017;DHT22;1518;52.408;13.060;2023-04-06T04:24:51;23.90;45.40
3017;DHT22;1518;52.408;13.060;2023-04-06T04:27:40;23.90;45.20
3017;DHT22;1518;52.408;13.060;2023-04-06T04:30:28;24.00;45.20
3017;DHT22;1518;52.408;13.060;2023-04-06T04:33:16;24.10;45.30
3017;DHT22;1518;52.408;13.060;2023-04-06T04:36:05;24.00;44.60
3017;DHT22;1518;52.408;13.060;2023-04-06T04:38:53;24.00;45.10
3017;DHT22;1518;52.408;13.060;2023-04-06T04:41:41;24.10;45.00
3017;DHT22;1518;52.408;13.060;2023-04-06T04:47:18;24.00;44.50
3017;DHT22;1518;52.408;13.060;2023-04-06T04:50:07;23.90;45.10
3017;DHT22;1518;52.408;13.060;2023-04-06T04:52:55;23.80;45.30
3017;DHT22;1518;52.408;13.060;2023-04-06T04:55:43;23.60;44.70
3017;DHT22;1518;52.408;13.060;2023-04-06T04:58:31;23.70;45.40
3017;DHT22;1518;52.408;13.060;2023-04-06T05:01:20;23.60;45.40
3017;DHT22;1518;52.408;13.060;2023-04-06T05:04:08;23.70;45.40
3017;DHT22;1518;52.408;13.060;2023-04-06T05:07:04;23.80;44.70
3017;DHT22;1518;52.408;13.060;2023-04-06T05:09:52;23.90;45.20
3017;DHT22;1518;52.408;13.060;2023-04-06T05:12:40;24.00;45.10
3017;DHT22;1518;52.408;13.060;2023-04-06T05:15:28;24.10;44.50
3017;DHT22;1518;52.408;13.060;2023-04-06T05:18:18;24.10;45.00
3017;DHT22;1518;52.408;13.060;2023-04-06T05:21:06;24.10;45.00
3017;DHT22;1518;52.408;13.060;2023-04-06T05:23:54;24.10;45.10
3017;DHT22;1518;52.408;13.060;2023-04-06T05:26:42;24.10;44.50
3017;DHT22;1518;52.408;13.060;2023-04-06T05:29:30;24.10;45.00
3017;DHT22;1518;52.408;13.060;2023-04-06T05:32:18;24.20;45.00
3017;DHT22;1518;52.408;13.060;2023-04-06T05:35:10;24.10;44.50
3017;DHT22;1518;52.408;13.060;2023-04-06T05:37:59;24.10;45.00
3017;DHT22;1518;52.408;13.060;2023-04-06T05:40:47;24.20;45.10
3017;DHT22;1518;52.408;13.060;2023-04-06T05:43:36;24.20;44.90
3017;DHT22;1518;52.408;13.060;2023-04-06T05:46:24;24.20;44.40
3017;DHT22;1518;52.408;13.060;2023-04-06T05:49:12;24.20;44.90
3017;DHT22;1518;52.408;13.060;2023-04-06T05:52:01;24.30;44.90
3017;DHT22;1518;52.408;13.060;2023-04-06T05:54:51;24.20;51.70
3017;DHT22;1518;52.408;13.060;2023-04-06T05:57:39;24.20;44.90
3017;DHT22;1518;52.408;13.060;2023-04-06T06:00:27;24.20;45.00
3017;DHT22;1518;52.408;13.060;2023-04-06T06:03:15;24.10;44.80
3017;DHT22;1518;52.408;13.060;2023-04-06T06:06:04;24.10;44.60
3017;DHT22;1518;52.408;13.060;2023-04-06T06:08:53;24.10;45.10
3017;DHT22;1518;52.408;13.060;2023-04-06T06:11:42;24.10;45.00
3017;DHT22;1518;52.408;13.060;2023-04-06T06:14:30;24.10;45.00
3017;DHT22;1518;52.408;13.060;2023-04-06T06:17:18;24.00;44.60
3017;DHT22;1518;52.408;13.060;2023-04-06T06:20:07;24.00;45.10
3017;DHT22;1518;52.408;13.060;2023-04-06T06:22:56;24.00;45.40
3017;DHT22;1518;52.408;13.060;2023-04-06T06:25:45;24.20;44.90
3017;DHT22;1518;52.408;13.060;2023-04-06T06:28:33;24.20;45.30
3017;DHT22;1518;52.408;13.060;2023-04-06T06:31:21;24.30;45.20
3017;DHT22;1518;52.408;13.060;2023-04-06T06:34:09;24.40;45.20
3017;DHT22;1518;52.408;13.060;2023-04-06T06:37:00;24.50;44.80
3017;DHT22;1518;52.408;13.060;2023-04-06T06:39:48;24.60;45.20
3017;DHT22;1518;52.408;13.060;2023-04-06T06:42:38;24.50;45.20
3017;DHT22;1518;52.408;13.060;2023-04-06T06:45:26;24.40;44.70
3017;DHT22;1518;52.408;13.060;2023-04-06T06:48:16;24.40;45.30
3017;DHT22;1518;52.408;13.060;2023-04-06T06:51:04;24.40;45.30
3017;DHT22;1518;52.408;13.060;2023-04-06T06:53:52;24.30;45.40
3017;DHT22;1518;52.408;13.060;2023-04-06T06:56:40;24.30;45.00
3017;DHT22;1518;52.408;13.060;2023-04-06T06:59:29;24.40;45.50
3017;DHT22;1518;52.408;13.060;2023-04-06T07:02:18;24.50;45.50
3017;DHT22;1518;52.408;13.060;2023-04-06T07:05:06;24.70;44.80
3017;DHT22;1518;52.408;13.060;2023-04-06T07:08:10;24.70;45.30
3017;DHT22;1518;52.408;13.060;2023-04-06T07:10:58;24.80;45.20
3017;DHT22;1518;52.408;13.060;2023-04-06T07:13:46;24.90;45.20
3017;DHT22;1518;52.408;13.060;2023-04-06T07:16:35;24.90;44.70
3017;DHT22;1518;52.408;13.060;2023-04-06T07:19:23;24.90;45.30
3017;DHT22;1518;52.408;13.060;2023-04-06T07:22:12;24.90;45.30
3017;DHT22;1518;52.408;13.060;2023-04-06T07:25:00;24.80;44.90
3017;DHT22;1518;52.408;13.060;2023-04-06T07:27:48;24.80;45.50
3017;DHT22;1518;52.408;13.060;2023-04-06T07:30:36;24.70;45.50
3017;DHT22;1518;52.408;13.060;2023-04-06T07:33:26;24.80;45.70
3017;DHT22;1518;52.408;13.060;2023-04-06T07:36:16;24.80;45.20
3017;DHT22;1518;52.408;13.060;2023-04-06T07:39:05;24.70;45.60
3017;DHT22;1518;52.408;13.060;2023-04-06T07:41:54;24.80;45.70
3017;DHT22;1518;52.408;13.060;2023-04-06T07:44:42;25.20;49.10
3017;DHT22;1518;52.408;13.060;2023-04-06T07:47:31;24.80;45.70
3017;DHT22;1518;52.408;13.060;2023-04-06T07:50:21;24.80;45.70
3017;DHT22;1518;52.408;13.060;2023-04-06T07:53:09;24.80;45.70
3017;DHT22;1518;52.408;13.060;2023-04-06T07:55:58;24.90;45.30
3017;DHT22;1518;52.408;13.060;2023-04-06T07:58:48;24.90;45.70
3017;DHT22;1518;52.408;13.060;2023-04-06T08:01:40;24.80;46.30
3017;DHT22;1518;52.408;13.060;2023-04-06T08:04:28;24.80;45.70
3017;DHT22;1518;52.408;13.060;2023-04-06T08:07:18;24.70;45.20
3017;DHT22;1518;52.408;13.060;2023-04-06T08:10:06;24.80;45.80
3017;DHT22;1518;52.408;13.060;2023-04-06T08:12:54;24.80;45.80
3017;DHT22;1518;52.408;13.060;2023-04-06T08:15:43;24.80;45.20
3017;DHT22;1518;52.408;13.060;2023-04-06T08:18:31;24.90;45.80
3017;DHT22;1518;52.408;13.060;2023-04-06T08:21:19;24.90;45.70
3017;DHT22;1518;52.408;13.060;2023-04-06T08:24:09;25.00;45.80
3017;DHT22;1518;52.408;13.060;2023-04-06T08:26:57;25.00;45.20
3017;DHT22;1518;52.408;13.060;2023-04-06T08:29:45;25.00;45.80
3017;DHT22;1518;52.408;13.060;2023-04-06T08:32:34;25.00;45.80
3017;DHT22;1518;52.408;13.060;2023-04-06T08:35:22;24.90;45.30
3017;DHT22;1518;52.408;13.060;2023-04-06T08:38:10;24.90;45.90
3017;DHT22;1518;52.408;13.060;2023-04-06T08:41:00;24.80;45.90
3017;DHT22;1518;52.408;13.060;2023-04-06T08:43:49;24.70;46.00
3017;DHT22;1518;52.408;13.060;2023-04-06T08:46:39;24.60;45.50
3017;DHT22;1518;52.408;13.060;2023-04-06T08:49:28;24.60;46.00
3017;DHT22;1518;52.408;13.060;2023-04-06T08:52:18;24.70;46.20
3017;DHT22;1518;52.408;13.060;2023-04-06T08:55:06;24.80;45.60
3017;DHT22;1518;52.408;13.060;2023-04-06T08:57:56;24.80;46.10
3017;DHT22;1518;52.408;13.060;2023-04-06T09:00:45;24.90;45.90
3017;DHT22;1518;52.408;13.060;2023-04-06T09:03:37;25.00;45.80
3017;DHT22;1518;52.408;13.060;2023-04-06T09:06:27;25.10;45.10
3017;DHT22;1518;52.408;13.060;2023-04-06T09:09:15;25.10;45.50
3017;DHT22;1518;52.408;13.060;2023-04-06T09:12:03;25.20;45.60
3017;DHT22;1518;52.408;13.060;2023-04-06T09:14:54;25.20;45.00
3017;DHT22;1518;52.408;13.060;2023-04-06T09:17:43;25.20;45.50
3017;DHT22;1518;52.408;13.060;2023-04-06T09:20:33;25.20;45.40
3017;DHT22;1518;52.408;13.060;2023-04-06T09:23:22;25.20;45.40
3017;DHT22;1518;52.408;13.060;2023-04-06T09:26:12;25.20;44.80
3017;DHT22;1518;52.408;13.060;2023-04-06T09:29:00;25.30;45.50
3017;DHT22;1518;52.408;13.060;2023-04-06T09:31:51;25.20;45.40
3017;DHT22;1518;52.408;13.060;2023-04-06T09:34:40;25.10;45.00
3017;DHT22;1518;52.408;13.060;2023-04-06T09:37:28;25.20;45.50
3017;DHT22;1518;52.408;13.060;2023-04-06T09:40:16;25.20;45.40
3017;DHT22;1518;52.408;13.060;2023-04-06T09:43:05;25.20;45.30
3017;DHT22;1518;52.408;13.060;2023-04-06T09:45:55;25.30;44.80
3017;DHT22;1518;52.408;13.060;2023-04-06T09:48:45;25.20;45.20
3017;DHT22;1518;52.408;13.060;2023-04-06T09:51:37;25.20;45.20
3017;DHT22;1518;52.408;13.060;2023-04-06T09:54:28;25.20;45.40
3017;DHT22;1518;52.408;13.060;2023-04-06T09:57:22;25.10;45.00
3017;DHT22;1518;52.408;13.060;2023-04-06T10:00:15;25.00;45.60
3017;DHT22;1518;52.408;13.060;2023-04-06T10:03:21;25.00;45.50
3017;DHT22;1518;52.408;13.060;2023-04-06T10:06:20;25.00;45.60
3017;DHT22;1518;52.408;13.060;2023-04-06T10:09:08;25.00;45.60
3017;DHT22;1518;52.408;13.060;2023-04-06T10:11:58;25.10;45.50
3017;DHT22;1518;52.408;13.060;2023-04-06T10:14:46;25.20;48.40
3017;DHT22;1518;52.408;13.060;2023-04-06T10:17:35;25.20;45.40
3017;DHT22;1518;52.408;13.060;2023-04-06T10:20:27;25.20;45.30
3017;DHT22;1518;52.408;13.060;2023-04-06T10:23:24;25.10;45.40
3017;DHT22;1518;52.408;13.060;2023-04-06T10:26:16;25.10;44.80
3017;DHT22;1518;52.408;13.060;2023-04-06T10:29:05;25.10;45.30
3017;DHT22;1518;52.408;13.060;2023-04-06T10:31:53;25.10;45.40
3017;DHT22;1518;52.408;13.060;2023-04-06T10:34:42;25.20;45.50
3017;DHT22;1518;52.408;13.060;2023-04-06T10:37:46;25.30;45.50
3017;DHT22;1518;52.408;13.060;2023-04-06T10:40:37;25.40;45.40
3017;DHT22;1518;52.408;13.060;2023-04-06T10:43:26;25.40;45.20
3017;DHT22;1518;52.408;13.060;2023-04-06T10:46:25;25.50;45.00
3017;DHT22;1518;52.408;13.060;2023-04-06T10:49:13;25.50;45.10
3017;DHT22;1518;52.408;13.060;2023-04-06T10:52:01;25.60;45.10
3017;DHT22;1518;52.408;13.060;2023-04-06T10:54:50;25.50;45.10
3017;DHT22;1518;52.408;13.060;2023-04-06T10:57:40;25.60;45.10
3017;DHT22;1518;52.408;13.060;2023-04-06T11:00:28;25.60;45.10
3017;DHT22;1518;52.408;13.060;2023-04-06T11:03:42;25.50;45.70
3017;DHT22;1518;52.408;13.060;2023-04-06T11:06:31;25.50;45.10
3017;DHT22;1518;52.408;13.060;2023-04-06T11:09:24;25.50;45.10
3017;DHT22;1518;52.408;13.060;2023-04-06T11:12:21;25.60;45.10
3017;DHT22;1518;52.408;13.060;2023-04-06T11:15:11;25.50;45.00
3017;DHT22;1518;52.408;13.060;2023-04-06T11:18:03;25.50;45.00
3017;DHT22;1518;52.408;13.060;2023-04-06T11:20:51;25.50;45.00
3017;DHT22;1518;52.408;13.060;2023-04-06T11:23:39;25.40;45.00
3017;DHT22;1518;52.408;13.060;2023-04-06T11:26:28;25.50;45.00
3017;DHT22;1518;52.408;13.060;2023-04-06T11:29:17;25.60;45.00
3017;DHT22;1518;52.408;13.060;2023-04-06T11:32:07;25.60;44.90
3017;DHT22;1518;52.408;13.060;2023-04-06T11:34:57;25.60;45.00
3017;DHT22;1518;52.408;13.060;2023-04-06T11:37:46;25.60;44.90
3017;DHT22;1518;52.408;13.060;2023-04-06T11:40:34;25.60;44.90
3017;DHT22;1518;52.408;13.060;2023-04-06T11:43:26;25.60;44.90
3017;DHT22;1518;52.408;13.060;2023-04-06T11:46:18;25.50;44.90
3017;DHT22;1518;52.408;13.060;2023-04-06T11:49:07;25.40;44.80
3017;DHT22;1518;52.408;13.060;2023-04-06T11:51:55;25.60;45.00
3017;DHT22;1518;52.408;13.060;2023-04-06T11:54:44;25.30;45.00
3017;DHT22;1518;52.408;13.060;2023-04-06T11:57:32;25.20;45.00
3017;DHT22;1518;52.408;13.060;2023-04-06T12:00:21;25.10;45.20
3017;DHT22;1518;52.408;13.060;2023-04-06T12:03:10;25.00;45.30
3017;DHT22;1518;52.408;13.060;2023-04-06T12:05:59;25.00;45.30
3017;DHT22;1518;52.408;13.060;2023-04-06T12:08:47;25.10;45.30
3017;DHT22;1518;52.408;13.060;2023-04-06T12:11:35;25.20;45.20
3017;DHT22;1518;52.408;13.060;2023-04-06T12:14:24;25.30;45.10
3017;DHT22;1518;52.408;13.060;2023-04-06T12:17:12;25.40;45.00
3017;DHT22;1518;52.408;13.060;2023-04-06T12:20:00;25.50;44.90
3017;DHT22;1518;52.408;13.060;2023-04-06T12:23:09;25.50;44.80
3017;DHT22;1518;52.408;13.060;2023-04-06T12:25:57;25.50;44.90
3017;DHT22;1518;52.408;13.060;2023-04-06T12:28:45;25.50;44.80
3017;DHT22;1518;52.408;13.060;2023-04-06T12:31:35;25.50;44.80
3017;DHT22;1518;52.408;13.060;2023-04-06T12:34:26;25.50;44.80
3017;DHT22;1518;52.408;13.060;2023-04-06T12:37:14;25.50;44.80
3017;DHT22;1518;52.408;13.060;2023-04-06T12:40:06;25.50;44.90
3017;DHT22;1518;52.408;13.060;2023-04-06T12:42:54;25.50;44.90
3017;DHT22;1518;52.408;13.060;2023-04-06T12:45:42;25.60;46.80
3017;DHT22;1518;52.408;13.060;2023-04-06T12:48:30;25.60;44.70
3017;DHT22;1518;52.408;13.060;2023-04-06T12:51:19;25.60;44.70
3017;DHT22;1518;52.408;13.060;2023-04-06T12:54:07;25.60;44.70
3017;DHT22;1518;52.408;13.060;2023-04-06T12:56:56;25.70;44.60
3017;DHT22;1518;52.408;13.060;2023-04-06T12:59:45;25.70;44.70
3017;DHT22;1518;52.408;13.060;2023-04-06T13:02:33;25.70;44.60
3017;DHT22;1518;52.408;13.060;2023-04-06T13:05:21;25.70;44.60
3017;DHT22;1518;52.408;13.060;2023-04-06T13:08:09;25.70;44.60
3017;DHT22;1518;52.408;13.060;2023-04-06T13:10:57;25.70;44.70
3017;DHT22;1518;52.408;13.060;2023-04-06T13:13:46;25.60;44.70
3017;DHT22;1518;52.408;13.060;2023-04-06T13:16:34;25.60;44.60
3017;DHT22;1518;52.408;13.060;2023-04-06T13:19:23;25.70;44.70
3017;DHT22;1518;52.408;13.060;2023-04-06T13:22:12;25.60;44.70
3017;DHT22;1518;52.408;13.060;2023-04-06T13:25:00;25.70;44.80
3017;DHT22;1518;52.408;13.060;2023-04-06T13:27:48;25.60;44.60
3017;DHT22;1518;52.408;13.060;2023-04-06T13:30:38;25.70;44.70
3017;DHT22;1518;52.408;13.060;2023-04-06T13:33:26;25.70;44.60
3017;DHT22;1518;52.408;13.060;2023-04-06T13:36:14;25.60;44.00
3017;DHT22;1518;52.408;13.060;2023-04-06T13:39:04;25.70;44.80
3017;DHT22;1518;52.408;13.060;2023-04-06T13:41:53;25.50;44.80
3017;DHT22;1518;52.408;13.060;2023-04-06T13:44:42;25.40;44.90
3017;DHT22;1518;52.408;13.060;2023-04-06T13:47:31;25.40;45.00
3017;DHT22;1518;52.408;13.060;2023-04-06T13:50:20;25.40;45.00
3017;DHT22;1518;52.408;13.060;2023-04-06T13:53:08;25.40;45.00
3017;DHT22;1518;52.408;13.060;2023-04-06T13:55:57;25.40;45.00
3017;DHT22;1518;52.408;13.060;2023-04-06T13:58:45;25.60;45.00
3017;DHT22;1518;52.408;13.060;2023-04-06T14:01:33;25.70;44.90
3017;DHT22;1518;52.408;13.060;2023-04-06T14:04:22;25.70;44.80
3017;DHT22;1518;52.408;13.060;2023-04-06T14:07:10;25.70;44.70
3017;DHT22;1518;52.408;13.060;2023-04-06T14:09:58;25.80;44.60
3017;DHT22;1518;52.408;13.060;2023-04-06T14:12:47;25.90;44.60
3017;DHT22;1518;52.408;13.060;2023-04-06T14:15:35;26.20;46.20
3017;DHT22;1518;52.408;13.060;2023-04-06T14:18:23;26.00;44.40
3017;DHT22;1518;52.408;13.060;2023-04-06T14:21:12;26.00;44.30
3017;DHT22;1518;52.408;13.060;2023-04-06T14:24:01;26.10;44.40
3017;DHT22;1518;52.408;13.060;2023-04-06T14:26:49;26.10;44.40
3017;DHT22;1518;52.408;13.060;2023-04-06T14:29:37;26.20;44.50
3017;DHT22;1518;52.408;13.060;2023-04-06T14:32:26;26.10;44.40
3017;DHT22;1518;52.408;13.060;2023-04-06T14:35:14;26.00;44.30
3017;DHT22;1518;52.408;13.060;2023-04-06T14:38:04;26.10;44.50
3017;DHT22;1518;52.408;13.060;2023-04-06T14:40:52;26.10;44.40
3017;DHT22;1518;52.408;13.060;2023-04-06T14:43:40;26.20;44.50
3017;DHT22;1518;52.408;13.060;2023-04-06T14:46:29;26.30;44.40
3017;DHT22;1518;52.408;13.060;2023-04-06T14:49:17;26.20;44.30
3017;DHT22;1518;52.408;13.060;2023-04-06T14:52:05;26.30;44.30
3017;DHT22;1518;52.408;13.060;2023-04-06T14:54:54;26.30;44.40
3017;DHT22;1518;52.408;13.060;2023-04-06T14:57:42;26.30;44.30
3017;DHT22;1518;52.408;13.060;2023-04-06T15:00:30;26.30;44.30
3017;DHT22;1518;52.408;13.060;2023-04-06T15:03:18;26.40;44.30
3017;DHT22;1518;52.408;13.060;2023-04-06T15:06:12;26.40;44.20
3017;DHT22;1518;52.408;13.060;2023-04-06T15:09:02;26.40;44.20
3017;DHT22;1518;52.408;13.060;2023-04-06T15:11:51;26.40;44.20
3017;DHT22;1518;52.408;13.060;2023-04-06T15:14:39;26.40;44.20
3017;DHT22;1518;52.408;13.060;2023-04-06T15:17:27;26.50;44.10
3017;DHT22;1518;52.408;13.060;2023-04-06T15:20:15;26.50;44.20
3017;DHT22;1518;52.408;13.060;2023-04-06T15:23:04;26.60;44.10
3017;DHT22;1518;52.408;13.060;2023-04-06T15:25:52;26.60;44.00
3017;DHT22;1518;52.408;13.060;2023-04-06T15:28:41;26.70;44.10
3017;DHT22;1518;52.408;13.060;2023-04-06T15:31:30;26.70;44.00
3017;DHT22;1518;52.408;13.060;2023-04-06T15:34:24;26.80;44.00
3017;DHT22;1518;52.408;13.060;2023-04-06T15:37:12;26.80;43.90
3017;DHT22;1518;52.408;13.060;2023-04-06T15:40:00;26.90;43.90
3017;DHT22;1518;52.408;13.060;2023-04-06T15:42:49;26.90;43.90
3017;DHT22;1518;52.408;13.060;2023-04-06T15:45:38;26.80;43.40
3017;DHT22;1518;52.408;13.060;2023-04-06T15:48:28;26.80;43.80
3017;DHT22;1518;52.408;13.060;2023-04-06T15:51:17;26.80;43.90
3017;DHT22;1518;52.408;13.060;2023-04-06T15:54:06;26.80;43.90
3017;DHT22;1518;52.408;13.060;2023-04-06T15:56:54;26.70;44.60
3017;DHT22;1518;52.408;13.060;2023-04-06T15:59:42;26.60;44.00
3017;DHT22;1518;52.408;13.060;2023-04-06T16:02:32;26.60;44.10
3017;DHT22;1518;52.408;13.060;2023-04-06T16:05:20;26.50;44.20
3017;DHT22;1518;52.408;13.060;2023-04-06T16:08:09;26.50;44.20
3017;DHT22;1518;52.408;13.060;2023-04-06T16:10:58;26.60;44.30
3017;DHT22;1518;52.408;13.060;2023-04-06T16:13:46;26.60;44.20
3017;DHT22;1518;52.408;13.060;2023-04-06T16:16:41;26.60;43.70
3017;DHT22;1518;52.408;13.060;2023-04-06T16:19:30;26.60;44.20
3017;DHT22;1518;52.408;13.060;2023-04-06T16:22:18;26.60;44.20
3017;DHT22;1518;52.408;13.060;2023-04-06T16:25:07;26.60;44.20
3017;DHT22;1518;52.408;13.060;2023-04-06T16:27:56;26.60;43.80
3017;DHT22;1518;52.408;13.060;2023-04-06T16:30:44;26.50;44.20
3017;DHT22;1518;52.408;13.060;2023-04-06T16:33:32;26.50;44.20
3017;DHT22;1518;52.408;13.060;2023-04-06T16:36:22;26.50;44.20
3017;DHT22;1518;52.408;13.060;2023-04-06T16:39:11;26.50;44.30
3017;DHT22;1518;52.408;13.060;2023-04-06T16:41:59;26.50;44.30
3017;DHT22;1518;52.408;13.060;2023-04-06T16:44:48;26.50;44.20
3017;DHT22;1518;52.408;13.060;2023-04-06T16:47:37;26.60;44.30
3017;DHT22;1518;52.408;13.060;2023-04-06T16:50:25;26.60;44.20
3017;DHT22;1518;52.408;13.060;2023-04-06T16:53:14;26.70;44.20
3017;DHT22;1518;52.408;13.060;2023-04-06T16:56:03;26.80;44.10
3017;DHT22;1518;52.408;13.060;2023-04-06T16:58:51;26.80;44.10
3017;DHT22;1518;52.408;13.060;2023-04-06T17:01:39;26.80;44.00
3017;DHT22;1518;52.408;13.060;2023-04-06T17:04:28;26.70;43.90
3017;DHT22;1518;52.408;13.060;2023-04-06T17:07:16;26.70;44.10
3017;DHT22;1518;52.408;13.060;2023-04-06T17:10:07;26.60;44.20
3017;DHT22;1518;52.408;13.060;2023-04-06T17:12:55;26.40;44.30
3017;DHT22;1518;52.408;13.060;2023-04-06T17:15:43;26.20;47.20
3017;DHT22;1518;52.408;13.060;2023-04-06T17:18:31;26.10;44.50
3017;DHT22;1518;52.408;13.060;2023-04-06T17:21:20;26.00;44.60
3017;DHT22;1518;52.408;13.060;2023-04-06T17:24:08;25.90;44.60
3017;DHT22;1518;52.408;13.060;2023-04-06T17:26:58;25.80;44.60
3017;DHT22;1518;52.408;13.060;2023-04-06T17:29:46;25.80;44.80
3017;DHT22;1518;52.408;13.060;2023-04-06T17:32:34;25.80;44.90
3017;DHT22;1518;52.408;13.060;2023-04-06T17:35:23;25.70;44.90
3017;DHT22;1518;52.408;13.060;2023-04-06T17:38:11;25.60;44.90
3017;DHT22;1518;52.408;13.060;2023-04-06T17:40:59;25.60;44.90
3017;DHT22;1518;52.408;13.060;2023-04-06T17:43:52;25.50;44.80
3017;DHT22;1518;52.408;13.060;2023-04-06T17:46:40;25.60;44.90
3017;DHT22;1518;52.408;13.060;2023-04-06T17:49:28;25.50;44.90
3017;DHT22;1518;52.408;13.060;2023-04-06T17:52:16;25.40;44.90
3017;DHT22;1518;52.408;13.060;2023-04-06T17:55:04;25.40;45.00
3017;DHT22;1518;52.408;13.060;2023-04-06T17:57:52;25.40;44.50
3017;DHT22;1518;52.408;13.060;2023-04-06T18:00:42;25.40;45.00
3017;DHT22;1518;52.408;13.060;2023-04-06T18:03:30;25.40;45.00
3017;DHT22;1518;52.408;13.060;2023-04-06T18:06:18;25.40;45.10